Pagrindinis puslapis
METAR-TAF:

METAR-TAF

Oro uostai :

Parma, Italija

platuma: 44-49-17N, ilguma: 010-17-41E, Aukštis: 50 m

Dabartinis oras

Ataskaita buvo paskelbta 38 minutes, ne 20:50 UTC
Vėjas 4 kt iš Rytų/Pietryčių
Temperatūra 8°C
Drėgmė 100%
Slėgis 1015 hPa
Matomumas: 3000 m
rūkana

METAR: LIMP 272050Z 12004KT 3000 BR NSC 08/08 Q1015

Laikas: 22:28 (21:28 UTC)

Prognozė

Ataskaita buvo paskelbta 4 valandos ir 28 minutes, ne 17:00 UTC
Prognozė galioja nuo 27 metu 18 UTC su 28 metu 18 UTC
Vėjas 5 kt nuo kintamojo kryptimis
Matomumas: 3000 m
Išsisklaidę debesys ne aukštis 4000 ft
Išsisklaidę debesys ne aukštis 2000 ft
rūkana
Laikinai
nuo 28 metu 03 UTC su 28 metu 08 UTC
Matomumas: 0600 m
Su prošvaistėmis ne aukštis 500 ft
rūkas

TAF: LIMP 271700Z 2718/2818 VRB05KT 3000 BR SCT040 SCT020 TEMPO 2803/2808 0600 FG BKN005

Orai ataskaitas ir orų prognozės (METAR, TAF).

turimą stotys yra geltonos ir raudonos taškus žemėlapyje.

Perkelti pele per norėdami pamatyti stoties vardą.

Tada spustelėkite, norėdami matyti oro stebėjimo ir prognozės.

Norėdami pakeisti žemėlapį: spustelėkite ant žalios mygtukų su juodo kryžiaus žemyn,; žalią mygtuką su brūkšneliu, jei norite nutolinti; arba žalių rodyklių gretimoms žemėlapius.


METAR-TAF: